Time;durP1;ratioP1;P1;durP2;ratioP2;P2;SDS_P1;SDS_P2;PMS_P1;PMS_P2;Temp;Humidity;BMP_temperature;BMP_pressure;BME280_temperature;BME280_humidity;BME280_pressure;Samples;Min_cycle;Max_cycle;Signal;HPM_P1;HPM_P2
2023/04/06 00:00:42;;;;;;;12.30;8.47;;;2.60;99.90;;;;;;5011642;28;20201;-48
2023/04/06 00:03:10;;;;;;;10.10;7.90;;;2.60;99.90;;;;;;5002244;28;20229;-47
2023/04/06 00:05:37;;;;;;;9.87;7.00;;;2.60;99.90;;;;;;5000953;28;20295;-48
2023/04/06 00:08:05;;;;;;;8.37;7.27;;;2.60;99.90;;;;;;4993047;28;20232;-48
2023/04/06 00:10:32;;;;;;;9.90;8.20;;;2.60;99.90;;;;;;4999583;28;20209;-48
2023/04/06 00:12:59;;;;;;;10.47;8.50;;;2.60;99.90;;;;;;5002572;28;20225;-48
2023/04/06 00:15:27;;;;;;;10.23;8.30;;;2.60;99.90;;;;;;4997472;28;20631;-49
2023/04/06 00:17:54;;;;;;;11.93;8.70;;;2.50;99.90;;;;;;5010405;28;20647;-48
2023/04/06 00:20:22;;;;;;;12.17;9.53;;;2.50;99.90;;;;;;5008281;28;20207;-48
2023/04/06 00:22:50;;;;;;;10.77;9.33;;;2.50;99.90;;;;;;5008923;28;20212;-48
2023/04/06 00:25:17;;;;;;;14.43;11.60;;;2.40;99.90;;;;;;5000163;28;20201;-47
2023/04/06 00:27:44;;;;;;;16.43;10.43;;;2.50;99.90;;;;;;4996135;28;20693;-47
2023/04/06 00:30:11;;;;;;;13.43;9.30;;;2.40;99.90;;;;;;5013638;28;20201;-47
2023/04/06 00:32:38;;;;;;;16.03;10.40;;;2.40;99.90;;;;;;5016040;28;20208;-48
2023/04/06 00:35:07;;;;;;;15.80;9.97;;;2.40;99.90;;;;;;5007023;28;20224;-48
2023/04/06 00:37:38;;;;;;;12.70;10.27;;;2.40;99.90;;;;;;5017028;28;20219;-48
2023/04/06 00:40:07;;;;;;;12.00;8.93;;;2.40;99.90;;;;;;5007113;28;20201;-47
2023/04/06 00:42:37;;;;;;;10.23;9.17;;;2.40;99.90;;;;;;5016926;28;20209;-47
2023/04/06 00:45:04;;;;;;;9.90;8.43;;;2.30;99.90;;;;;;5001617;28;20200;-48
2023/04/06 00:47:31;;;;;;;12.33;9.20;;;2.30;99.90;;;;;;5016310;28;20665;-48
2023/04/06 00:49:58;;;;;;;11.70;9.57;;;2.20;99.90;;;;;;5018054;28;20231;-48
2023/04/06 00:52:26;;;;;;;14.13;9.13;;;2.20;99.90;;;;;;5012140;28;20220;-48
2023/04/06 00:54:54;;;;;;;10.83;9.17;;;2.10;99.90;;;;;;5001136;28;20258;-48
2023/04/06 00:57:21;;;;;;;12.07;8.10;;;2.10;99.90;;;;;;5001226;28;20200;-48
2023/04/06 00:59:48;;;;;;;15.13;8.53;;;2.20;99.90;;;;;;4997872;28;20231;-48
2023/04/06 01:02:15;;;;;;;15.33;9.20;;;2.20;99.90;;;;;;4998344;28;20315;-47
2023/04/06 01:04:43;;;;;;;14.63;9.10;;;2.20;99.90;;;;;;4983268;28;20226;-47
2023/04/06 01:07:10;;;;;;;13.70;8.50;;;2.10;99.90;;;;;;5004854;28;20192;-48
2023/04/06 01:09:37;;;;;;;9.23;8.10;;;2.10;99.90;;;;;;5017355;28;20560;-47
2023/04/06 01:12:05;;;;;;;9.37;7.23;;;2.10;99.90;;;;;;5017417;28;20682;-47
2023/04/06 01:14:32;;;;;;;10.43;8.00;;;2.10;99.90;;;;;;4996574;28;20624;-48
2023/04/06 01:17:01;;;;;;;11.87;8.50;;;2.10;99.90;;;;;;4995236;28;20209;-47
2023/04/06 01:19:28;;;;;;;9.80;7.63;;;2.00;99.90;;;;;;5006657;28;20256;-48
2023/04/06 01:21:56;;;;;;;9.50;7.70;;;2.00;99.90;;;;;;5017582;28;20212;-48
2023/04/06 01:24:24;;;;;;;8.57;6.90;;;2.00;99.90;;;;;;5012237;28;20201;-48
2023/04/06 01:26:51;;;;;;;10.57;7.47;;;2.00;99.90;;;;;;5010116;28;20203;-49
2023/04/06 01:29:18;;;;;;;14.03;7.77;;;1.90;99.90;;;;;;4995430;28;20251;-48
2023/04/06 01:31:45;;;;;;;9.17;7.60;;;1.90;99.90;;;;;;4995998;28;20205;-47
2023/04/06 01:34:12;;;;;;;9.23;6.63;;;1.90;99.90;;;;;;4993657;28;20267;-47
2023/04/06 01:36:39;;;;;;;9.60;7.47;;;1.90;99.90;;;;;;5000717;28;20209;-48
2023/04/06 01:39:07;;;;;;;10.53;7.10;;;1.90;99.90;;;;;;5005638;28;20335;-48
2023/04/06 01:41:35;;;;;;;7.90;6.67;;;1.80;99.90;;;;;;5014061;28;20207;-48
2023/04/06 01:44:02;;;;;;;8.73;7.83;;;1.80;99.90;;;;;;4996579;28;20206;-49
2023/04/06 01:46:30;;;;;;;8.07;7.13;;;1.80;99.90;;;;;;5003844;28;20247;-47
2023/04/06 01:48:57;;;;;;;9.33;6.70;;;1.70;99.90;;;;;;5013642;28;20274;-47
2023/04/06 01:51:25;;;;;;;12.27;7.97;;;1.80;99.90;;;;;;5014073;28;20208;-47
2023/04/06 01:53:52;;;;;;;9.03;8.13;;;1.90;99.90;;;;;;5009621;28;20780;-49
2023/04/06 01:56:19;;;;;;;11.73;7.50;;;1.90;99.90;;;;;;4990254;28;20201;-47
2023/04/06 01:58:48;;;;;;;8.63;7.23;;;1.90;99.90;;;;;;4993958;28;20634;-47
2023/04/06 02:01:15;;;;;;;10.77;8.07;;;1.90;99.90;;;;;;4994312;28;20212;-47
2023/04/06 02:03:42;;;;;;;8.43;6.93;;;2.00;99.90;;;;;;4992102;28;20206;-47
2023/04/06 02:06:09;;;;;;;11.03;7.07;;;2.00;99.90;;;;;;5000720;28;20198;-48
2023/04/06 02:08:36;;;;;;;8.83;6.67;;;2.00;99.90;;;;;;5005943;28;20231;-47
2023/04/06 02:11:04;;;;;;;7.83;6.93;;;2.10;99.90;;;;;;5001751;28;20213;-48
2023/04/06 02:13:31;;;;;;;7.47;6.40;;;2.10;99.90;;;;;;4999258;28;20229;-49
2023/04/06 02:15:59;;;;;;;10.23;7.07;;;2.20;99.90;;;;;;5001420;28;20202;-47
2023/04/06 02:18:27;;;;;;;11.90;8.13;;;2.20;99.90;;;;;;4993689;28;20710;-47
2023/04/06 02:20:54;;;;;;;10.37;7.33;;;2.20;99.90;;;;;;4991434;28;20224;-47
2023/04/06 02:23:21;;;;;;;8.07;6.73;;;2.20;99.90;;;;;;4996980;28;20230;-47
2023/04/06 02:25:48;;;;;;;7.53;6.23;;;2.20;99.90;;;;;;4992704;28;20657;-47
2023/04/06 02:28:15;;;;;;;11.17;6.83;;;2.20;99.90;;;;;;5001324;28;20728;-47
2023/04/06 02:30:42;;;;;;;9.93;6.90;;;2.20;99.90;;;;;;5012660;28;20213;-48
2023/04/06 02:33:11;;;;;;;7.37;6.67;;;2.20;99.90;;;;;;5006316;28;20706;-47
2023/04/06 02:35:38;;;;;;;11.00;7.27;;;2.10;99.90;;;;;;5004784;28;20555;-49
2023/04/06 02:38:05;;;;;;;7.37;6.77;;;2.10;99.90;;;;;;5013021;28;20228;-49
2023/04/06 02:40:32;;;;;;;7.53;6.13;;;2.00;99.90;;;;;;4998567;28;20221;-49
2023/04/06 02:42:59;;;;;;;8.73;6.50;;;2.00;99.90;;;;;;5004638;28;20196;-47
2023/04/06 02:45:26;;;;;;;8.20;6.33;;;1.90;99.90;;;;;;5001458;28;20208;-47
2023/04/06 02:47:53;;;;;;;7.13;6.40;;;2.00;99.90;;;;;;5006228;28;20573;-48
2023/04/06 02:50:21;;;;;;;7.17;6.47;;;1.90;99.90;;;;;;5010054;28;20213;-47
2023/04/06 02:52:48;;;;;;;8.17;5.73;;;1.90;99.90;;;;;;4997618;28;20200;-47
2023/04/06 02:55:15;;;;;;;9.73;7.17;;;1.90;99.90;;;;;;5012730;28;20235;-47
2023/04/06 02:57:42;;;;;;;7.23;6.50;;;1.90;99.90;;;;;;4992182;28;20206;-47
2023/04/06 03:00:11;;;;;;;10.00;7.77;;;1.80;99.90;;;;;;4999622;28;20196;-47
2023/04/06 03:02:38;;;;;;;7.67;6.50;;;1.70;99.90;;;;;;5012898;28;20230;-47
2023/04/06 03:05:05;;;;;;;11.50;6.83;;;1.70;99.90;;;;;;5012631;28;20204;-47
2023/04/06 03:07:34;;;;;;;7.87;7.07;;;1.70;99.90;;;;;;5005504;28;20212;-47
2023/04/06 03:10:01;;;;;;;7.53;6.57;;;1.70;99.90;;;;;;5001483;28;20220;-48
2023/04/06 03:12:28;;;;;;;7.47;6.30;;;1.60;99.90;;;;;;5001413;28;20217;-47
2023/04/06 03:14:55;;;;;;;9.83;6.40;;;1.60;99.90;;;;;;4998955;28;20572;-47
2023/04/06 03:17:22;;;;;;;12.70;8.33;;;1.60;99.90;;;;;;4996655;28;20208;-47
2023/04/06 03:19:49;;;;;;;10.57;6.67;;;1.60;99.90;;;;;;4992619;28;20661;-49
2023/04/06 03:22:16;;;;;;;7.60;6.90;;;1.60;99.90;;;;;;4999112;28;20200;-47
2023/04/06 03:24:45;;;;;;;9.30;8.13;;;1.60;99.90;;;;;;5004075;28;20200;-47
2023/04/06 03:27:12;;;;;;;10.50;6.83;;;1.60;99.90;;;;;;5012508;28;20278;-47
2023/04/06 03:29:39;;;;;;;7.33;6.47;;;1.60;99.90;;;;;;5006656;28;20234;-47
2023/04/06 03:32:06;;;;;;;6.93;5.93;;;1.60;99.90;;;;;;5003866;28;20200;-47
2023/04/06 03:34:33;;;;;;;8.03;6.63;;;1.50;99.90;;;;;;5002434;28;20225;-47
2023/04/06 03:37:00;;;;;;;9.87;6.27;;;1.60;99.90;;;;;;4999079;28;20758;-48
2023/04/06 03:39:27;;;;;;;9.57;8.57;;;1.70;99.90;;;;;;5009584;28;20289;-47
2023/04/06 03:41:55;;;;;;;11.13;8.93;;;1.70;99.90;;;;;;5012084;28;20677;-47
2023/04/06 03:44:22;;;;;;;9.40;7.63;;;1.60;99.90;;;;;;5000020;28;20623;-47
2023/04/06 03:46:49;;;;;;;13.07;9.73;;;1.60;99.90;;;;;;4992617;28;20208;-47
2023/04/06 03:49:16;;;;;;;9.10;7.60;;;1.50;99.90;;;;;;4999784;28;20221;-47
2023/04/06 03:51:43;;;;;;;7.93;6.67;;;1.50;99.90;;;;;;4991721;28;20211;-47
2023/04/06 03:54:10;;;;;;;8.17;7.27;;;1.50;99.90;;;;;;5007256;28;20278;-47
2023/04/06 03:56:37;;;;;;;9.37;6.83;;;1.50;99.90;;;;;;5011986;28;20734;-47
2023/04/06 03:59:06;;;;;;;9.43;6.40;;;1.40;99.90;;;;;;5006042;28;20230;-47
2023/04/06 04:01:33;;;;;;;8.57;6.80;;;1.40;99.90;;;;;;4984027;28;20216;-47
2023/04/06 04:04:00;;;;;;;8.03;7.17;;;1.40;99.90;;;;;;4997318;28;20196;-49
2023/04/06 04:06:27;;;;;;;9.97;6.70;;;1.40;99.90;;;;;;5009443;28;20208;-47
2023/04/06 04:08:54;;;;;;;9.40;6.73;;;1.30;99.90;;;;;;4972535;28;20236;-47
2023/04/06 04:11:21;;;;;;;8.17;6.73;;;1.40;99.90;;;;;;4972742;28;20636;-48
2023/04/06 04:13:48;;;;;;;8.60;6.53;;;1.40;99.90;;;;;;4985897;28;20232;-48
2023/04/06 04:16:16;;;;;;;5.70;5.23;;;1.50;99.90;;;;;;4983125;28;20272;-47
2023/04/06 04:18:45;;;;;;;14.87;7.43;;;1.50;99.90;;;;;;4990756;28;20220;-47
2023/04/06 04:21:12;;;;;;;11.00;6.60;;;1.40;99.90;;;;;;4978716;28;20197;-47
2023/04/06 04:23:39;;;;;;;9.23;6.30;;;1.40;99.90;;;;;;4972902;28;20213;-47
2023/04/06 04:26:07;;;;;;;9.53;7.00;;;1.40;99.90;;;;;;4977048;28;20237;-47
2023/04/06 04:28:34;;;;;;;9.57;6.80;;;1.40;99.90;;;;;;4984542;28;20221;-47
2023/04/06 04:31:01;;;;;;;9.50;6.20;;;1.40;99.90;;;;;;4977211;28;20272;-47
2023/04/06 04:33:29;;;;;;;8.27;6.27;;;1.40;99.90;;;;;;4976496;28;20209;-47
2023/04/06 04:35:56;;;;;;;7.53;6.67;;;1.40;99.90;;;;;;4984086;28;20223;-49
2023/04/06 04:38:23;;;;;;;8.37;7.50;;;1.40;99.90;;;;;;4971070;28;20713;-49
2023/04/06 04:40:50;;;;;;;8.00;6.57;;;1.40;99.90;;;;;;4985349;28;20228;-49
2023/04/06 04:43:19;;;;;;;7.60;6.10;;;1.30;99.90;;;;;;4989485;28;20232;-47
2023/04/06 04:45:46;;;;;;;8.70;6.77;;;1.30;99.90;;;;;;4988921;28;20197;-49
2023/04/06 04:48:13;;;;;;;8.10;5.97;;;1.30;99.90;;;;;;4989392;28;20222;-49
2023/04/06 04:50:41;;;;;;;7.07;5.97;;;1.40;99.90;;;;;;4976845;28;20601;-50
2023/04/06 04:53:08;;;;;;;7.83;7.10;;;1.50;99.90;;;;;;4979701;28;20204;-50
2023/04/06 04:55:36;;;;;;;13.67;6.83;;;1.40;99.90;;;;;;4980112;28;20210;-50
2023/04/06 04:58:06;;;;;;;8.55;7.00;;;1.50;99.90;;;;;;4972494;28;20452;-49
2023/04/06 05:00:34;;;;;;;12.97;6.90;;;1.60;99.90;;;;;;4979832;28;20205;-49
2023/04/06 05:03:08;;;;;;;12.67;8.23;;;1.60;99.90;;;;;;4978948;28;20210;-49
2023/04/06 05:05:38;;;;;;;9.90;7.57;;;1.60;99.90;;;;;;4982639;28;20206;-49
2023/04/06 05:08:06;;;;;;;9.87;7.37;;;1.60;99.90;;;;;;4986202;28;20310;-50
2023/04/06 05:10:34;;;;;;;9.10;6.83;;;1.60;99.90;;;;;;4992967;28;20234;-51
2023/04/06 05:13:01;;;;;;;10.40;6.97;;;1.60;99.90;;;;;;4986727;28;20218;-49
2023/04/06 05:15:29;;;;;;;8.17;7.33;;;1.70;99.90;;;;;;4985396;28;20690;-50
2023/04/06 05:17:56;;;;;;;9.70;7.77;;;1.70;99.90;;;;;;4980991;28;20225;-48
2023/04/06 05:20:23;;;;;;;9.93;7.60;;;1.70;99.90;;;;;;4985858;28;20201;-47
2023/04/06 05:22:50;;;;;;;8.80;7.23;;;1.70;99.90;;;;;;4974304;28;20217;-47
2023/04/06 05:25:19;;;;;;;11.30;9.33;;;1.60;99.90;;;;;;4980430;28;20217;-48
2023/04/06 05:27:46;;;;;;;8.63;7.77;;;1.70;99.90;;;;;;4987242;28;20205;-47
2023/04/06 05:30:14;;;;;;;12.70;8.03;;;1.70;99.90;;;;;;4974837;28;20213;-47
2023/04/06 05:32:43;;;;;;;7.33;6.43;;;1.80;99.90;;;;;;4976211;28;20205;-48
2023/04/06 05:35:11;;;;;;;8.03;6.63;;;1.90;99.90;;;;;;4984354;28;20225;-48
2023/04/06 05:37:41;;;;;;;8.53;6.97;;;2.00;99.90;;;;;;4975161;28;20260;-47
2023/04/06 05:40:09;;;;;;;8.27;7.07;;;2.10;99.90;;;;;;4976184;28;20221;-48
2023/04/06 05:42:39;;;;;;;10.93;7.23;;;2.20;99.90;;;;;;4980879;28;20201;-47
2023/04/06 05:45:07;;;;;;;10.93;6.57;;;2.30;99.90;;;;;;4983904;28;20209;-47
2023/04/06 05:47:38;;;;;;;6.73;6.03;;;2.40;99.90;;;;;;4980890;28;20203;-47
2023/04/06 05:50:06;;;;;;;9.63;7.07;;;2.80;99.90;;;;;;4981276;28;20213;-48
2023/04/06 05:52:37;;;;;;;8.63;6.83;;;3.80;99.90;;;;;;4984150;28;20202;-48
2023/04/06 05:55:05;;;;;;;8.90;6.60;;;5.10;99.90;;;;;;4988096;28;20229;-48
2023/04/06 05:57:32;;;;;;;8.47;6.77;;;5.90;99.90;;;;;;4982433;28;20687;-47
2023/04/06 06:00:01;;;;;;;7.80;6.90;;;6.60;99.90;;;;;;4979392;28;20235;-49
2023/04/06 06:02:28;;;;;;;9.70;5.80;;;7.20;99.90;;;;;;4980649;28;20206;-48
2023/04/06 06:04:55;;;;;;;9.77;6.93;;;7.50;99.90;;;;;;4983514;28;20202;-48
2023/04/06 06:07:22;;;;;;;7.37;6.30;;;7.90;99.90;;;;;;4982689;28;20212;-48
2023/04/06 06:09:49;;;;;;;12.53;6.63;;;8.50;99.90;;;;;;4980760;28;20229;-49
2023/04/06 06:12:16;;;;;;;7.17;6.40;;;9.10;99.90;;;;;;4979837;28;20629;-48
2023/04/06 06:14:43;;;;;;;7.57;6.77;;;9.90;99.90;;;;;;4974284;28;20666;-48
2023/04/06 06:17:12;;;;;;;10.67;7.83;;;9.80;98.20;;;;;;4980480;28;20240;-48
2023/04/06 06:19:39;;;;;;;8.30;6.33;;;9.30;98.70;;;;;;4980582;28;20226;-48
2023/04/06 06:22:06;;;;;;;6.90;6.07;;;9.20;98.80;;;;;;4988541;28;20203;-48
2023/04/06 06:24:33;;;;;;;8.00;5.57;;;9.70;98.30;;;;;;4993433;28;20210;-48
2023/04/06 06:27:00;;;;;;;8.83;6.73;;;10.00;97.00;;;;;;4984351;28;20221;-48
2023/04/06 06:29:27;;;;;;;8.23;6.50;;;10.40;96.90;;;;;;4988267;28;20284;-48
2023/04/06 06:31:54;;;;;;;8.53;6.27;;;10.80;95.60;;;;;;4998975;28;20228;-48
2023/04/06 06:34:22;;;;;;;7.27;6.47;;;10.90;96.00;;;;;;4982119;28;20199;-48
2023/04/06 06:36:51;;;;;;;11.10;6.60;;;11.30;94.60;;;;;;4976107;28;20210;-48
2023/04/06 06:39:18;;;;;;;7.50;6.23;;;11.60;93.50;;;;;;4987151;28;20222;-48
2023/04/06 06:41:45;;;;;;;8.77;5.67;;;11.10;93.30;;;;;;4982752;28;20212;-48
2023/04/06 06:44:12;;;;;;;7.10;6.50;;;11.50;92.60;;;;;;4981812;28;20877;-48
2023/04/06 06:46:40;;;;;;;6.90;6.37;;;11.40;93.00;;;;;;4981063;28;20261;-51
2023/04/06 06:49:07;;;;;;;8.07;6.70;;;12.20;93.20;;;;;;4985569;28;20230;-47
2023/04/06 06:51:35;;;;;;;10.57;7.67;;;12.30;91.70;;;;;;4990220;28;20217;-48
2023/04/06 06:54:02;;;;;;;14.77;6.63;;;12.20;91.60;;;;;;4991046;28;20203;-48
2023/04/06 06:56:29;;;;;;;6.90;6.27;;;12.20;91.70;;;;;;4990860;28;20221;-48
2023/04/06 06:58:56;;;;;;;8.47;5.80;;;12.20;91.70;;;;;;4991220;28;20225;-48
2023/04/06 07:01:23;;;;;;;6.23;5.57;;;12.60;91.60;;;;;;4989462;28;20221;-48
2023/04/06 07:03:51;;;;;;;6.80;6.40;;;13.20;91.90;;;;;;4989154;28;20211;-48
2023/04/06 07:06:18;;;;;;;14.17;8.90;;;13.50;90.00;;;;;;4992709;28;20607;-48
2023/04/06 07:08:46;;;;;;;6.87;6.17;;;14.00;90.00;;;;;;4988611;28;20222;-49
2023/04/06 07:11:14;;;;;;;17.47;6.07;;;14.20;87.50;;;;;;5003682;28;20210;-48
2023/04/06 07:13:41;;;;;;;6.13;5.63;;;14.80;89.90;;;;;;5012058;28;20202;-48
2023/04/06 07:16:08;;;;;;;6.37;5.83;;;14.00;85.80;;;;;;4982212;28;20222;-48
2023/04/06 07:18:35;;;;;;;6.63;6.03;;;14.20;88.00;;;;;;4980944;28;20230;-48
2023/04/06 07:21:02;;;;;;;8.03;6.10;;;14.10;85.90;;;;;;5001043;28;20202;-48
2023/04/06 07:23:29;;;;;;;5.97;5.47;;;13.80;85.70;;;;;;4995434;28;20228;-48
2023/04/06 07:25:58;;;;;;;6.50;5.43;;;14.10;85.20;;;;;;4992232;28;20637;-48
2023/04/06 07:28:25;;;;;;;6.17;5.63;;;14.60;86.90;;;;;;4982679;28;20233;-48
2023/04/06 07:30:54;;;;;;;5.27;4.87;;;14.50;83.10;;;;;;4988532;28;20679;-49
2023/04/06 07:33:21;;;;;;;6.37;5.87;;;14.90;86.20;;;;;;4992756;28;20292;-48
2023/04/06 07:35:48;;;;;;;7.10;6.50;;;14.80;84.00;;;;;;4999856;28;20217;-48
2023/04/06 07:38:15;;;;;;;6.50;6.03;;;14.70;85.10;;;;;;4992012;28;20284;-48
2023/04/06 07:40:42;;;;;;;7.80;5.23;;;14.90;85.10;;;;;;4989337;28;20233;-48
2023/04/06 07:43:11;;;;;;;5.47;5.17;;;14.90;84.40;;;;;;4985306;28;20210;-48
2023/04/06 07:45:38;;;;;;;7.13;5.63;;;14.50;82.40;;;;;;4981108;28;20203;-48
2023/04/06 07:48:05;;;;;;;5.30;4.93;;;14.20;82.80;;;;;;4985537;28;20283;-48
2023/04/06 07:50:32;;;;;;;6.30;5.80;;;14.40;81.70;;;;;;5005765;28;20219;-47
2023/04/06 07:53:00;;;;;;;6.03;5.53;;;13.60;81.00;;;;;;4999064;28;20676;-48
2023/04/06 07:55:27;;;;;;;6.10;5.60;;;14.10;82.60;;;;;;4994792;28;20219;-47
2023/04/06 07:57:54;;;;;;;7.67;6.17;;;14.30;81.60;;;;;;4985810;28;20542;-48
2023/04/06 08:00:23;;;;;;;5.47;5.07;;;14.70;84.00;;;;;;4980787;28;20687;-48
2023/04/06 08:02:50;;;;;;;6.17;5.67;;;15.30;83.00;;;;;;4971786;28;20677;-48
2023/04/06 08:05:17;;;;;;;5.80;5.30;;;14.90;79.00;;;;;;4974301;28;20204;-48
2023/04/06 08:07:44;;;;;;;12.63;5.23;;;14.50;82.20;;;;;;4971797;28;20624;-48
2023/04/06 08:10:11;;;;;;;5.40;4.90;;;15.20;81.70;;;;;;4971595;28;20211;-48
2023/04/06 08:12:40;;;;;;;7.37;5.83;;;16.00;79.60;;;;;;4975381;28;20216;-50
2023/04/06 08:15:07;;;;;;;5.40;4.90;;;16.70;81.90;;;;;;4981312;28;20208;-49
2023/04/06 08:17:38;;;;;;;6.43;5.83;;;16.80;77.60;;;;;;4971901;28;20204;-49
2023/04/06 08:20:06;;;;;;;7.13;6.47;;;17.10;74.70;;;;;;4971762;28;20662;-49
2023/04/06 08:22:37;;;;;;;7.33;6.80;;;17.30;79.40;;;;;;4971628;28;20205;-50
2023/04/06 08:25:04;;;;;;;8.57;6.50;;;17.10;74.60;;;;;;4981899;28;20749;-49
2023/04/06 08:27:31;;;;;;;6.30;5.83;;;17.50;72.30;;;;;;4989786;28;20216;-49
2023/04/06 08:29:58;;;;;;;8.40;7.53;;;17.50;75.70;;;;;;4981420;28;20223;-49
2023/04/06 08:32:26;;;;;;;8.10;7.30;;;17.30;72.40;;;;;;4979368;28;20562;-49
2023/04/06 08:34:56;;;;;;;6.70;6.13;;;16.30;73.10;;;;;;4971329;28;20201;-49
2023/04/06 08:37:23;;;;;;;7.17;6.23;;;16.60;73.30;;;;;;4971609;28;20205;-51
2023/04/06 08:39:51;;;;;;;7.70;7.10;;;17.50;74.10;;;;;;4970925;28;20224;-49
2023/04/06 08:42:21;;;;;;;6.80;6.17;;;17.70;74.90;;;;;;4985847;28;20294;-49
2023/04/06 08:44:50;;;;;;;6.70;6.30;;;17.30;72.40;;;;;;4975127;28;20670;-49
2023/04/06 08:47:17;;;;;;;7.40;6.67;;;17.20;70.70;;;;;;4975396;28;20248;-49
2023/04/06 08:49:46;;;;;;;7.30;6.60;;;16.80;68.40;;;;;;4977899;28;20300;-49
2023/04/06 08:52:18;;;;;;;6.90;6.40;;;16.00;68.90;;;;;;4975244;28;20299;-50
2023/04/06 08:54:45;;;;;;;7.37;6.63;;;17.00;75.80;;;;;;4979764;28;20203;-49
2023/04/06 08:57:13;;;;;;;6.63;6.00;;;17.90;72.50;;;;;;4986326;28;20596;-50
2023/04/06 08:59:41;;;;;;;6.53;6.03;;;17.90;73.10;;;;;;4993043;28;20720;-49
2023/04/06 09:02:16;;;;;;;6.60;6.03;;;18.50;70.90;;;;;;4992779;28;20264;-51
2023/04/06 09:04:45;;;;;;;7.00;6.37;;;18.70;71.20;;;;;;4993049;28;20218;-49
2023/04/06 09:07:14;;;;;;;7.40;6.37;;;18.70;66.70;;;;;;4978653;28;20239;-50
2023/04/06 09:09:47;;;;;;;11.63;6.70;;;19.20;68.80;;;;;;4982730;28;20227;-50
2023/04/06 09:12:24;;;;;;;7.23;6.40;;;19.50;71.70;;;;;;4980002;28;20274;-48
2023/04/06 09:14:51;;;;;;;7.73;7.03;;;19.10;71.90;;;;;;4974859;28;20579;-49
2023/04/06 09:17:22;;;;;;;12.80;10.03;;;18.20;68.60;;;;;;4974565;28;20224;-49
2023/04/06 09:19:49;;;;;;;10.30;6.77;;;18.70;71.20;;;;;;4992602;28;20705;-49
2023/04/06 09:22:18;;;;;;;7.90;7.13;;;18.20;68.90;;;;;;4990976;28;20200;-49
2023/04/06 09:24:48;;;;;;;7.57;6.97;;;18.20;68.30;;;;;;4989777;28;20203;-49
2023/04/06 09:27:16;;;;;;;7.57;6.87;;;18.60;71.20;;;;;;4974409;28;20705;-49
2023/04/06 09:29:43;;;;;;;8.80;7.90;;;19.10;72.60;;;;;;4974251;28;20308;-50
2023/04/06 09:32:16;;;;;;;7.50;6.90;;;19.10;66.90;;;;;;4974615;28;20204;-49
2023/04/06 09:34:45;;;;;;;8.13;7.43;;;18.20;63.00;;;;;;4980677;28;20199;-49
2023/04/06 09:37:16;;;;;;;7.63;7.03;;;18.20;67.90;;;;;;4999593;28;20216;-50
2023/04/06 09:39:44;;;;;;;9.27;7.70;;;18.20;64.50;;;;;;4995269;28;20222;-49
2023/04/06 09:42:12;;;;;;;7.63;7.00;;;19.10;61.10;;;;;;4997085;28;20207;-52
2023/04/06 09:44:39;;;;;;;8.33;7.63;;;19.40;62.60;;;;;;4993006;28;20203;-50
2023/04/06 09:47:08;;;;;;;8.23;7.40;;;19.80;58.60;;;;;;5004645;28;20196;-50
2023/04/06 09:49:36;;;;;;;7.87;7.03;;;20.20;60.00;;;;;;4999037;28;20609;-49
2023/04/06 09:52:04;;;;;;;8.23;7.47;;;20.20;67.70;;;;;;4987856;28;20250;-50
2023/04/06 09:54:32;;;;;;;7.03;6.43;;;19.40;67.30;;;;;;5001150;28;20200;-50
2023/04/06 09:57:08;;;;;;;10.40;9.37;;;19.30;66.10;;;;;;4996774;28;20315;-50
2023/04/06 09:59:51;;;;;;;10.00;9.00;;;18.80;68.00;;;;;;4987601;28;20250;-50
2023/04/06 10:02:35;;;;;;;7.80;7.27;;;18.40;71.40;;;;;;4998203;28;20218;-49
2023/04/06 10:05:07;;;;;;;9.50;8.63;;;18.50;70.90;;;;;;4988671;28;20247;-49
2023/04/06 10:07:35;;;;;;;14.17;7.90;;;17.60;67.50;;;;;;4993959;28;20196;-49
2023/04/06 10:10:04;;;;;;;9.37;8.47;;;17.90;72.90;;;;;;4997899;28;20693;-49
2023/04/06 10:12:32;;;;;;;10.10;9.37;;;17.60;74.50;;;;;;4998890;28;20226;-49
2023/04/06 10:15:00;;;;;;;10.83;10.07;;;17.50;76.60;;;;;;5001070;28;20205;-49
2023/04/06 10:17:27;;;;;;;11.50;9.90;;;17.80;79.70;;;;;;5000291;28;20224;-49
2023/04/06 10:20:00;;;;;;;9.53;8.63;;;17.00;78.30;;;;;;4982540;28;20234;-49
2023/04/06 10:22:36;;;;;;;10.53;9.63;;;17.00;78.80;;;;;;4991217;28;20612;-49
2023/04/06 10:25:03;;;;;;;10.57;9.57;;;16.60;79.40;;;;;;5000540;28;20199;-48
2023/04/06 10:27:33;;;;;;;11.07;10.23;;;16.40;81.40;;;;;;4994482;28;20195;-49
2023/04/06 10:30:06;;;;;;;10.27;9.30;;;16.70;80.20;;;;;;5003572;28;20705;-50
2023/04/06 10:32:37;;;;;;;10.40;9.60;;;17.60;76.20;;;;;;4997712;28;20216;-49
2023/04/06 10:35:09;;;;;;;11.00;10.00;;;16.60;81.50;;;;;;4973466;28;20216;-50
2023/04/06 10:37:51;;;;;;;9.30;8.67;;;17.30;76.10;;;;;;4995792;28;20223;-50
2023/04/06 10:40:25;;;;;;;10.47;9.43;;;17.50;79.40;;;;;;5003520;28;20247;-50
2023/04/06 10:42:55;;;;;;;8.80;8.00;;;18.10;77.30;;;;;;4994230;28;20238;-49
2023/04/06 10:45:23;;;;;;;9.27;8.47;;;17.20;72.10;;;;;;5005742;28;20207;-49
2023/04/06 10:47:53;;;;;;;8.97;8.23;;;17.00;77.40;;;;;;4991620;28;20199;-49
2023/04/06 10:50:20;;;;;;;8.90;7.40;;;16.90;77.00;;;;;;5002609;28;20203;-49
2023/04/06 10:52:47;;;;;;;9.00;7.90;;;16.40;70.00;;;;;;4999393;28;20204;-49
2023/04/06 10:55:15;;;;;;;8.13;7.43;;;16.80;69.90;;;;;;5008432;28;20207;-49
2023/04/06 10:57:42;;;;;;;8.67;7.50;;;16.60;72.10;;;;;;5012910;28;20223;-49
2023/04/06 11:00:13;;;;;;;8.50;7.70;;;16.10;67.40;;;;;;5012884;28;20232;-49
2023/04/06 11:02:41;;;;;;;8.13;7.40;;;15.80;68.70;;;;;;5002928;28;20215;-49
2023/04/06 11:05:09;;;;;;;10.60;7.50;;;15.60;76.00;;;;;;5000621;28;20199;-49
2023/04/06 11:07:38;;;;;;;8.20;7.40;;;15.50;76.10;;;;;;4999755;28;20223;-49
2023/04/06 11:10:06;;;;;;;8.77;7.00;;;15.20;78.90;;;;;;5000032;28;20247;-49
2023/04/06 11:12:36;;;;;;;7.60;6.90;;;14.90;73.80;;;;;;4998079;28;20235;-49
2023/04/06 11:15:05;;;;;;;8.80;7.63;;;14.90;72.00;;;;;;5006592;28;20206;-48
2023/04/06 11:17:39;;;;;;;8.60;7.80;;;15.10;72.20;;;;;;5006954;28;20266;-50
2023/04/06 11:20:11;;;;;;;7.20;6.47;;;15.30;72.70;;;;;;5018447;28;20222;-48
2023/04/06 11:22:50;;;;;;;6.97;6.37;;;15.10;74.50;;;;;;4986289;28;20640;-49
2023/04/06 11:25:17;;;;;;;6.30;5.70;;;14.80;72.00;;;;;;4997453;28;20214;-49
2023/04/06 11:27:45;;;;;;;6.53;5.97;;;14.40;71.90;;;;;;4992352;28;20200;-49
2023/04/06 11:30:13;;;;;;;6.63;6.13;;;14.10;72.90;;;;;;4991444;28;20200;-50
2023/04/06 11:32:43;;;;;;;6.70;6.10;;;14.30;78.00;;;;;;4986808;28;20227;-50
2023/04/06 11:35:13;;;;;;;6.77;5.90;;;14.20;73.60;;;;;;4979697;28;20199;-49
2023/04/06 11:37:40;;;;;;;7.03;6.33;;;13.60;75.60;;;;;;4983117;28;20279;-52
2023/04/06 11:40:10;;;;;;;6.70;6.10;;;13.40;77.00;;;;;;4988924;28;20227;-49
2023/04/06 11:42:41;;;;;;;5.23;4.83;;;13.50;77.20;;;;;;4986962;28;20674;-48
2023/04/06 11:45:10;;;;;;;7.07;6.37;;;13.20;74.10;;;;;;4976037;28;20201;-49
2023/04/06 11:47:38;;;;;;;6.93;6.07;;;13.10;76.90;;;;;;4974313;28;20194;-48
2023/04/06 11:50:11;;;;;;;6.10;5.53;;;13.20;75.50;;;;;;4972860;28;20313;-49
2023/04/06 11:52:42;;;;;;;6.97;6.37;;;13.10;79.20;;;;;;4972082;28;20206;-49
2023/04/06 11:55:14;;;;;;;6.07;5.47;;;13.40;75.50;;;;;;4972071;28;20199;-49
2023/04/06 11:57:41;;;;;;;5.77;5.20;;;13.50;76.40;;;;;;4990040;28;20735;-49
2023/04/06 12:00:10;;;;;;;5.67;4.93;;;13.70;72.60;;;;;;4978103;28;20205;-49
2023/04/06 12:02:40;;;;;;;5.13;4.63;;;13.80;75.70;;;;;;4971303;28;20232;-49
2023/04/06 12:05:10;;;;;;;6.77;5.73;;;14.10;73.80;;;;;;4972030;28;20643;-49
2023/04/06 12:07:40;;;;;;;6.83;5.43;;;13.90;69.20;;;;;;4971674;28;20192;-49
2023/04/06 12:10:08;;;;;;;9.43;5.40;;;13.90;74.70;;;;;;4971602;28;20727;-49
2023/04/06 12:12:37;;;;;;;6.27;5.67;;;13.90;75.00;;;;;;4973422;28;20314;-48
2023/04/06 12:15:05;;;;;;;6.17;5.67;;;13.40;73.90;;;;;;4985448;28;20203;-49
2023/04/06 12:17:32;;;;;;;6.67;5.13;;;13.40;74.60;;;;;;4987728;28;20258;-49
2023/04/06 12:19:59;;;;;;;5.63;5.20;;;13.30;71.30;;;;;;4994149;28;20264;-49
2023/04/06 12:22:28;;;;;;;5.10;4.67;;;13.60;73.00;;;;;;4996799;28;20217;-49
2023/04/06 12:24:55;;;;;;;7.00;6.40;;;13.70;69.20;;;;;;4980747;28;20592;-49
2023/04/06 12:27:22;;;;;;;7.87;5.70;;;13.70;73.80;;;;;;4990077;28;20208;-48
2023/04/06 12:29:49;;;;;;;5.70;5.17;;;13.80;77.00;;;;;;4979559;28;20230;-49
2023/04/06 12:32:16;;;;;;;7.80;5.00;;;13.50;74.20;;;;;;4989951;28;20215;-48
2023/04/06 12:34:43;;;;;;;5.03;4.57;;;13.30;73.00;;;;;;4991886;28;20202;-49
2023/04/06 12:37:10;;;;;;;5.47;5.07;;;13.10;70.80;;;;;;4993877;28;20271;-49
2023/04/06 12:39:38;;;;;;;7.93;6.43;;;13.00;70.80;;;;;;4993360;28;20242;-49
2023/04/06 12:42:06;;;;;;;6.70;6.07;;;12.90;68.60;;;;;;4987663;28;20306;-48
2023/04/06 12:44:33;;;;;;;7.85;6.63;;;12.90;70.50;;;;;;4987509;28;20459;-49
2023/04/06 12:47:01;;;;;;;6.67;6.00;;;13.10;71.30;;;;;;4995617;28;20205;-48
2023/04/06 12:49:28;;;;;;;8.67;6.00;;;13.30;76.00;;;;;;4990327;28;20219;-49
2023/04/06 12:51:55;;;;;;;6.63;5.93;;;13.40;75.10;;;;;;5000175;28;20208;-49